createdAt,value
2023-11-23T00:00:12.104Z,-2.70
2023-11-23T00:02:39.846Z,-2.21
2023-11-23T00:05:10.614Z,-1.57
2023-11-23T00:07:39.447Z,-1.93
2023-11-23T00:10:12.446Z,-1.27
2023-11-23T00:12:39.828Z,-1.46
2023-11-23T00:15:08.364Z,-1.15
2023-11-23T00:17:37.111Z,-2.29
2023-11-23T00:20:08.096Z,-1.04
2023-11-23T00:22:35.974Z,-1.78
2023-11-23T00:25:04.566Z,-1.38
2023-11-23T00:27:31.225Z,-1.01
2023-11-23T00:29:58.000Z,-1.22
2023-11-23T00:32:24.903Z,-2.09
2023-11-23T00:34:52.301Z,-1.48
2023-11-23T00:37:19.217Z,-0.95
2023-11-23T00:39:45.974Z,-2.59
2023-11-23T00:42:12.762Z,-1.14
2023-11-23T00:44:40.205Z,-1.30
2023-11-23T00:47:07.707Z,-2.94
2023-11-23T00:49:37.183Z,-1.11
2023-11-23T00:52:04.177Z,-1.63
2023-11-23T00:54:31.541Z,-1.41
2023-11-23T00:56:58.254Z,-1.44
2023-11-23T00:59:25.100Z,-1.32
2023-11-23T01:01:51.940Z,-0.83
2023-11-23T01:04:18.981Z,-0.94
2023-11-23T01:06:45.709Z,-1.32
2023-11-23T01:09:12.804Z,-1.36
2023-11-23T01:11:40.187Z,-1.07
2023-11-23T01:14:09.514Z,-1.10
2023-11-23T01:16:36.465Z,-1.01
2023-11-23T01:19:03.224Z,-0.65
2023-11-23T01:21:30.024Z,-0.86
2023-11-23T01:23:56.702Z,-1.07
2023-11-23T01:26:23.420Z,-1.08
2023-11-23T01:28:50.134Z,-1.83
2023-11-23T01:31:16.882Z,-0.80
2023-11-23T01:33:43.616Z,-2.79
2023-11-23T01:36:10.465Z,-1.26
2023-11-23T01:38:37.569Z,-1.70
2023-11-23T01:41:04.477Z,-1.04
2023-11-23T01:43:32.879Z,-1.40
2023-11-23T01:45:59.609Z,-1.54
2023-11-23T01:48:26.278Z,-1.28
2023-11-23T01:50:53.004Z,-1.62
2023-11-23T01:53:19.654Z,-1.36
2023-11-23T01:55:47.663Z,-0.64
2023-11-23T01:58:15.376Z,-0.88
2023-11-23T02:00:42.016Z,-1.06
2023-11-23T02:03:08.738Z,-1.05
2023-11-23T02:05:35.452Z,-0.91
2023-11-23T02:08:02.129Z,-0.46
2023-11-23T02:10:29.113Z,-1.21
2023-11-23T02:12:56.969Z,-0.78
2023-11-23T02:15:23.707Z,-1.02
2023-11-23T02:18:03.488Z,-1.04
2023-11-23T02:20:32.078Z,-1.19
2023-11-23T02:23:01.257Z,-0.96
2023-11-23T02:25:28.373Z,-2.26
2023-11-23T02:27:55.019Z,-1.64
2023-11-23T02:30:21.777Z,-0.74
2023-11-23T02:32:49.414Z,-0.81
2023-11-23T02:35:16.361Z,-1.35
2023-11-23T02:37:43.232Z,-0.52
2023-11-23T02:40:12.202Z,-1.73
2023-11-23T02:42:41.855Z,-1.45
2023-11-23T02:45:10.324Z,-1.08
2023-11-23T02:47:37.038Z,-0.93
2023-11-23T02:50:05.640Z,-0.72
2023-11-23T02:52:32.511Z,-0.70
2023-11-23T02:54:59.157Z,-2.41
2023-11-23T02:57:25.865Z,-0.93
2023-11-23T02:59:52.541Z,-1.32
2023-11-23T03:02:19.454Z,-0.87
2023-11-23T03:04:46.270Z,-0.97
2023-11-23T03:07:13.003Z,-1.16
2023-11-23T03:09:39.635Z,-1.00
2023-11-23T03:12:06.587Z,-0.54
2023-11-23T03:14:35.621Z,-0.64
2023-11-23T03:17:04.335Z,-0.96
2023-11-23T03:19:31.053Z,-1.29
2023-11-23T03:21:58.821Z,-0.45
2023-11-23T03:24:25.675Z,-1.24
2023-11-23T03:26:52.540Z,-1.90
2023-11-23T03:29:19.275Z,-1.14
2023-11-23T03:31:46.203Z,-1.71
2023-11-23T03:34:13.038Z,-0.99
2023-11-23T03:36:39.798Z,-0.85
2023-11-23T03:39:08.166Z,-1.22
2023-11-23T03:41:35.422Z,-1.02
2023-11-23T03:44:02.162Z,-0.31
2023-11-23T03:46:28.910Z,-2.01
2023-11-23T03:48:55.851Z,-0.46
2023-11-23T03:51:22.524Z,-0.31
2023-11-23T03:53:49.298Z,-0.93
2023-11-23T03:56:19.797Z,-0.89
2023-11-23T03:58:46.618Z,-2.24
2023-11-23T04:01:13.353Z,-0.78
2023-11-23T04:03:46.098Z,-1.20
2023-11-23T04:06:13.031Z,-0.94
2023-11-23T04:08:42.779Z,-0.88
2023-11-23T04:11:10.686Z,-1.15
2023-11-23T04:13:37.483Z,-0.47
2023-11-23T04:16:04.599Z,-0.97
2023-11-23T04:18:31.328Z,-2.11
2023-11-23T04:20:58.218Z,-0.62
2023-11-23T04:23:25.056Z,-1.08
2023-11-23T04:25:51.742Z,-1.13
2023-11-23T04:28:18.463Z,-2.43
2023-11-23T04:30:45.304Z,-2.75
2023-11-23T04:33:12.360Z,-1.01
2023-11-23T04:35:39.252Z,-0.83
2023-11-23T04:38:06.040Z,-0.82
2023-11-23T04:40:32.737Z,-0.81
2023-11-23T04:42:59.466Z,-2.37
2023-11-23T04:45:26.273Z,-1.16
2023-11-23T04:47:53.535Z,-1.27
2023-11-23T04:50:22.456Z,-1.02
2023-11-23T04:52:49.445Z,-0.76
2023-11-23T04:55:16.121Z,-0.38
2023-11-23T04:57:43.183Z,-0.78
2023-11-23T05:00:12.098Z,-2.18
2023-11-23T05:02:44.050Z,-0.46
2023-11-23T05:05:13.377Z,-0.23
2023-11-23T05:07:40.496Z,-0.30
2023-11-23T05:10:09.465Z,-0.33
2023-11-23T05:12:36.632Z,-0.46
2023-11-23T05:15:04.085Z,-0.18
2023-11-23T05:17:31.565Z,-0.65
2023-11-23T05:19:58.227Z,-0.44
2023-11-23T05:22:25.527Z,-0.56
2023-11-23T05:24:52.214Z,-0.33
2023-11-23T05:27:18.984Z,-2.07
2023-11-23T05:29:47.622Z,-0.83
2023-11-23T05:32:16.136Z,-0.16
2023-11-23T05:34:42.777Z,-1.40
2023-11-23T05:37:09.447Z,-1.36
2023-11-23T05:39:36.372Z,-0.52
2023-11-23T05:42:04.076Z,-0.34
2023-11-23T05:44:31.575Z,-0.37
2023-11-23T05:46:58.289Z,-0.44
2023-11-23T05:49:24.957Z,-0.86
2023-11-23T05:51:51.679Z,-0.29
2023-11-23T05:54:18.501Z,-0.51
2023-11-23T05:56:46.628Z,-1.02
2023-11-23T05:59:13.398Z,-1.92
2023-11-23T06:01:40.161Z,-0.36
2023-11-23T06:04:07.194Z,-0.84
2023-11-23T06:06:33.956Z,-0.98
2023-11-23T06:09:00.709Z,-0.68
2023-11-23T06:11:27.471Z,-1.14
2023-11-23T06:13:54.581Z,-0.49
2023-11-23T06:16:21.257Z,-0.17
2023-11-23T06:18:48.258Z,-0.23
2023-11-23T06:21:14.992Z,-1.69
2023-11-23T06:23:41.693Z,-1.01
2023-11-23T06:26:08.792Z,-1.06
2023-11-23T06:28:35.421Z,-1.22
2023-11-23T06:31:02.066Z,-0.35
2023-11-23T06:33:28.897Z,-0.19
2023-11-23T06:35:56.349Z,-2.93
2023-11-23T06:38:24.834Z,-0.17
2023-11-23T06:40:52.230Z,-0.39
2023-11-23T06:43:18.960Z,-1.32
2023-11-23T06:45:45.787Z,-0.41
2023-11-23T06:48:12.908Z,-0.73
2023-11-23T06:50:39.785Z,-1.33
2023-11-23T06:53:06.946Z,-0.28
2023-11-23T06:55:34.551Z,0.08
2023-11-23T06:58:01.181Z,-0.59
2023-11-23T07:00:27.903Z,-2.36
2023-11-23T07:02:57.292Z,0.05
2023-11-23T07:05:25.619Z,-0.38
2023-11-23T07:07:53.144Z,-1.49
2023-11-23T07:10:21.482Z,-0.25
2023-11-23T07:12:49.563Z,-0.04
2023-11-23T07:15:18.615Z,0.05
2023-11-23T07:17:45.888Z,0.35
2023-11-23T07:20:16.185Z,-0.23
2023-11-23T07:22:43.043Z,0.33
2023-11-23T07:25:10.510Z,-0.39
2023-11-23T07:27:38.282Z,0.08
2023-11-23T07:30:07.869Z,-0.06
2023-11-23T07:32:35.142Z,0.06
2023-11-23T07:35:02.326Z,-2.06
2023-11-23T07:37:30.197Z,-0.28
2023-11-23T07:39:58.087Z,0.09
2023-11-23T07:42:26.609Z,-0.46
2023-11-23T07:44:53.601Z,0.40
2023-11-23T07:47:21.171Z,0.03
2023-11-23T07:49:47.955Z,0.05
2023-11-23T07:52:15.419Z,-0.05
2023-11-23T07:54:42.358Z,-0.88
2023-11-23T07:57:09.044Z,0.50
2023-11-23T07:59:37.892Z,0.33
2023-11-23T08:02:06.189Z,0.46
2023-11-23T08:04:33.174Z,-0.36
2023-11-23T08:07:00.484Z,0.21
2023-11-23T08:09:27.613Z,0.01
2023-11-23T08:11:57.464Z,0.12
2023-11-23T08:14:24.502Z,0.24
2023-11-23T08:16:51.379Z,0.00
2023-11-23T08:19:18.481Z,0.63
2023-11-23T08:21:49.143Z,0.41
2023-11-23T08:24:18.720Z,0.04
2023-11-23T08:26:45.758Z,0.28
2023-11-23T08:29:12.972Z,0.26
2023-11-23T08:31:41.080Z,0.25
2023-11-23T08:34:09.115Z,-0.76
2023-11-23T08:36:37.324Z,0.62
2023-11-23T08:39:04.785Z,0.69
2023-11-23T08:41:32.061Z,-0.42
2023-11-23T08:43:59.933Z,0.86
2023-11-23T08:46:26.903Z,0.47
2023-11-23T08:48:53.721Z,-0.79
2023-11-23T08:51:20.517Z,0.56
2023-11-23T08:53:47.781Z,0.89
2023-11-23T08:56:15.324Z,-0.07
2023-11-23T08:58:43.505Z,0.94
2023-11-23T09:01:10.197Z,0.21
2023-11-23T09:03:37.018Z,0.29
2023-11-23T09:06:04.331Z,1.03
2023-11-23T09:08:31.164Z,-0.14
2023-11-23T09:10:58.434Z,1.04
2023-11-23T09:13:27.355Z,0.97
2023-11-23T09:15:57.448Z,1.38
2023-11-23T09:18:24.298Z,1.06
2023-11-23T09:21:00.242Z,1.29
2023-11-23T09:23:54.947Z,1.65
2023-11-23T09:26:21.843Z,1.38
2023-11-23T09:28:48.987Z,1.56
2023-11-23T09:31:19.346Z,1.40
2023-11-23T09:33:46.326Z,1.06
2023-11-23T09:36:13.518Z,1.00
2023-11-23T09:38:40.247Z,1.40
2023-11-23T09:41:08.129Z,0.66
2023-11-23T09:43:34.830Z,1.87
2023-11-23T09:46:03.006Z,1.82
2023-11-23T09:49:07.916Z,2.08
2023-11-23T09:51:36.564Z,1.13
2023-11-23T09:54:04.535Z,1.57
2023-11-23T09:56:36.313Z,1.38
2023-11-23T09:59:03.133Z,1.87
2023-11-23T10:01:30.123Z,1.97
2023-11-23T10:03:57.233Z,2.19
2023-11-23T10:06:24.475Z,2.45
2023-11-23T10:08:51.245Z,2.08
2023-11-23T10:11:21.134Z,1.73
2023-11-23T10:13:51.356Z,2.33
2023-11-23T10:16:36.121Z,1.82
2023-11-23T10:19:08.186Z,1.69
2023-11-23T10:21:35.663Z,2.10
2023-11-23T10:24:09.281Z,1.70
2023-11-23T10:26:36.377Z,1.96
2023-11-23T10:29:03.432Z,2.01
2023-11-23T10:31:31.966Z,1.61
2023-11-23T10:33:59.617Z,1.72
2023-11-23T10:36:26.382Z,0.37
2023-11-23T10:38:53.105Z,0.65
2023-11-23T10:41:19.773Z,0.69
2023-11-23T10:43:49.840Z,1.98
2023-11-23T10:46:18.058Z,2.42
2023-11-23T10:48:45.783Z,2.20
2023-11-23T10:51:12.539Z,2.12
2023-11-23T10:53:41.160Z,1.59
2023-11-23T10:56:17.725Z,0.94
2023-11-23T10:58:44.411Z,1.74
2023-11-23T11:01:11.770Z,2.49
2023-11-23T11:03:39.622Z,1.67
2023-11-23T11:06:11.542Z,2.58
2023-11-23T11:08:39.441Z,1.89
2023-11-23T11:11:11.688Z,1.17
2023-11-23T11:13:45.743Z,1.87
2023-11-23T11:16:16.889Z,2.12
2023-11-23T11:18:53.731Z,1.44
2023-11-23T11:21:22.047Z,2.28
2023-11-23T11:23:53.059Z,2.55
2023-11-23T11:26:29.284Z,2.48
2023-11-23T11:28:59.169Z,2.64
2023-11-23T11:31:33.214Z,2.38
2023-11-23T11:34:01.565Z,2.13
2023-11-23T11:36:32.278Z,2.14
2023-11-23T11:39:00.851Z,2.53
2023-11-23T11:41:31.057Z,2.48
2023-11-23T11:43:58.394Z,2.34
2023-11-23T11:46:28.439Z,2.21
2023-11-23T11:49:02.438Z,2.27
2023-11-23T11:51:31.137Z,2.29
2023-11-23T11:54:01.346Z,2.41
2023-11-23T11:56:29.419Z,2.14
2023-11-23T11:58:58.211Z,2.86
2023-11-23T12:01:26.445Z,2.14
2023-11-23T12:03:54.894Z,2.61
2023-11-23T12:06:21.742Z,2.84
2023-11-23T12:08:48.447Z,2.40
2023-11-23T12:11:28.078Z,2.00
2023-11-23T12:13:57.074Z,2.58
2023-11-23T12:16:33.087Z,1.40
2023-11-23T12:19:00.187Z,1.39
2023-11-23T12:21:26.989Z,1.52
2023-11-23T12:23:54.244Z,0.72
2023-11-23T12:26:20.888Z,2.03
2023-11-23T12:28:50.931Z,2.42
2023-11-23T12:31:18.943Z,2.03
2023-11-23T12:33:45.815Z,2.54
2023-11-23T12:36:13.692Z,2.50
2023-11-23T12:38:40.540Z,2.08
2023-11-23T12:41:08.591Z,2.85
2023-11-23T12:43:36.292Z,2.44
2023-11-23T12:46:03.347Z,2.29
2023-11-23T12:48:30.222Z,1.42
2023-11-23T12:50:57.757Z,2.29
2023-11-23T12:55:51.207Z,2.21
2023-11-23T12:58:20.221Z,2.22
2023-11-23T13:00:48.362Z,0.43
2023-11-23T13:03:15.446Z,2.65
2023-11-23T13:05:42.544Z,2.51
2023-11-23T13:08:09.654Z,1.81
2023-11-23T13:10:37.252Z,2.26
2023-11-23T13:13:06.239Z,2.69
2023-11-23T13:15:34.469Z,2.47
2023-11-23T13:18:01.374Z,2.36
2023-11-23T13:20:28.391Z,2.54
2023-11-23T13:22:55.697Z,2.77
2023-11-23T13:25:22.605Z,2.88
2023-11-23T13:27:52.697Z,2.60
2023-11-23T13:30:19.440Z,2.68
2023-11-23T13:32:47.520Z,2.08
2023-11-23T13:35:14.392Z,1.80
2023-11-23T13:37:41.043Z,1.74
2023-11-23T13:40:08.576Z,2.49
2023-11-23T13:42:35.492Z,1.58
2023-11-23T13:45:03.588Z,2.37
2023-11-23T13:47:30.369Z,2.32
2023-11-23T13:49:57.056Z,0.66
2023-11-23T13:52:23.744Z,2.66
2023-11-23T13:54:50.480Z,2.65
2023-11-23T13:57:17.393Z,2.26
2023-11-23T13:59:45.162Z,2.78
2023-11-23T14:02:14.117Z,2.30
2023-11-23T14:04:41.582Z,2.38
2023-11-23T14:07:08.683Z,2.85
2023-11-23T14:09:35.462Z,2.21
2023-11-23T14:12:04.859Z,2.89
2023-11-23T14:14:31.830Z,2.94
2023-11-23T14:16:58.793Z,2.82
2023-11-23T14:19:26.247Z,3.05
2023-11-23T14:21:53.042Z,3.05
2023-11-23T14:24:21.374Z,2.94
2023-11-23T14:26:50.864Z,2.98
2023-11-23T14:29:17.950Z,1.47
2023-11-23T14:31:45.747Z,3.06
2023-11-23T14:34:12.478Z,3.26
2023-11-23T14:36:39.248Z,3.00
2023-11-23T14:39:06.990Z,3.10
2023-11-23T14:41:33.721Z,2.81
2023-11-23T14:44:00.346Z,2.90
2023-11-23T14:46:26.951Z,1.47
2023-11-23T14:48:53.706Z,3.02
2023-11-23T14:51:21.368Z,3.20
2023-11-23T14:53:51.747Z,3.48
2023-11-23T14:56:19.755Z,3.19
2023-11-23T14:58:46.773Z,3.27
2023-11-23T15:01:13.576Z,2.82
2023-11-23T15:03:40.316Z,3.64
2023-11-23T15:06:07.315Z,2.88
2023-11-23T15:08:33.964Z,3.73
2023-11-23T15:11:00.719Z,2.22
2023-11-23T15:13:35.987Z,2.16
2023-11-23T15:16:05.915Z,3.35
2023-11-23T15:18:32.750Z,2.66
2023-11-23T15:21:00.588Z,3.32
2023-11-23T15:23:27.337Z,3.19
2023-11-23T15:25:55.427Z,3.15
2023-11-23T15:28:22.856Z,2.97
2023-11-23T15:30:49.873Z,3.87
2023-11-23T15:33:17.806Z,3.88
2023-11-23T15:35:45.206Z,3.72
2023-11-23T15:38:11.874Z,3.52
2023-11-23T15:40:38.526Z,3.79
2023-11-23T15:43:05.372Z,3.96
2023-11-23T15:45:32.168Z,3.93
2023-11-23T15:47:58.850Z,3.52
2023-11-23T15:50:29.357Z,4.07
2023-11-23T15:52:57.906Z,3.38
2023-11-23T15:55:25.441Z,1.90
2023-11-23T15:57:52.242Z,2.08
2023-11-23T16:00:24.872Z,3.88
2023-11-23T16:02:51.715Z,3.90
2023-11-23T16:05:25.851Z,4.31
2023-11-23T16:07:53.521Z,2.60
2023-11-23T16:10:20.659Z,2.40
2023-11-23T16:12:47.983Z,4.43
2023-11-23T16:15:14.930Z,4.39
2023-11-23T16:17:41.667Z,4.31
2023-11-23T16:20:12.489Z,4.47
2023-11-23T16:22:39.138Z,4.26
2023-11-23T16:25:08.414Z,4.07
2023-11-23T16:27:35.201Z,3.79
2023-11-23T16:30:02.620Z,4.16
2023-11-23T16:32:29.316Z,3.86
2023-11-23T16:34:56.468Z,4.58
2023-11-23T16:37:23.157Z,3.94
2023-11-23T16:39:50.193Z,4.49
2023-11-23T16:42:16.971Z,4.64
2023-11-23T16:44:43.674Z,3.25
2023-11-23T16:47:12.103Z,4.54
2023-11-23T16:49:38.963Z,4.57
2023-11-23T16:52:06.108Z,4.08
2023-11-23T16:54:32.865Z,4.61
2023-11-23T16:56:59.673Z,4.32
2023-11-23T16:59:26.318Z,4.58
2023-11-23T17:01:53.060Z,4.44
2023-11-23T17:04:19.989Z,4.40
2023-11-23T17:06:46.745Z,3.36
2023-11-23T17:09:14.083Z,3.78
2023-11-23T17:11:40.876Z,3.44
2023-11-23T17:14:10.971Z,4.61
2023-11-23T17:16:39.417Z,4.80
2023-11-23T17:19:06.227Z,4.87
2023-11-23T17:21:32.980Z,4.74
2023-11-23T17:24:00.118Z,4.13
2023-11-23T17:26:26.761Z,4.36
2023-11-23T17:28:55.685Z,4.54
2023-11-23T17:31:22.384Z,4.42
2023-11-23T17:33:49.045Z,3.12
2023-11-23T17:36:15.832Z,4.75
2023-11-23T17:38:42.550Z,4.30
2023-11-23T17:41:11.531Z,3.42
2023-11-23T17:43:38.276Z,4.03
2023-11-23T17:46:06.020Z,3.51
2023-11-23T17:48:35.009Z,4.41
2023-11-23T17:51:01.720Z,4.64
2023-11-23T17:53:29.170Z,4.80
2023-11-23T17:55:55.940Z,4.78
2023-11-23T17:58:22.919Z,4.65
2023-11-23T18:00:50.525Z,4.06
2023-11-23T18:03:18.413Z,3.47
2023-11-23T18:05:45.152Z,4.61
2023-11-23T18:08:11.883Z,4.62
2023-11-23T18:10:39.352Z,4.33
2023-11-23T18:13:06.668Z,3.87
2023-11-23T18:15:34.314Z,4.11
2023-11-23T18:18:09.758Z,4.16
2023-11-23T18:20:41.939Z,4.66
2023-11-23T18:23:08.595Z,4.79
2023-11-23T18:25:37.169Z,4.46
2023-11-23T18:28:03.812Z,3.59
2023-11-23T18:30:30.481Z,4.44
2023-11-23T18:32:57.324Z,3.10
2023-11-23T18:35:24.795Z,4.48
2023-11-23T18:37:51.519Z,4.64
2023-11-23T18:40:22.176Z,4.40
2023-11-23T18:42:54.421Z,4.81
2023-11-23T18:45:21.223Z,4.39
2023-11-23T18:47:48.234Z,4.38
2023-11-23T18:50:16.031Z,4.15
2023-11-23T18:52:42.768Z,4.30
2023-11-23T18:55:16.197Z,3.91
2023-11-23T18:57:43.317Z,4.26
2023-11-23T19:00:10.727Z,4.71
2023-11-23T19:02:42.105Z,4.30
2023-11-23T19:05:09.526Z,4.33
2023-11-23T19:07:36.172Z,4.43
2023-11-23T19:10:03.219Z,3.25
2023-11-23T19:12:31.188Z,4.31
2023-11-23T19:15:02.031Z,4.50
2023-11-23T19:17:29.452Z,3.89
2023-11-23T19:19:56.334Z,4.74
2023-11-23T19:22:23.453Z,4.83
2023-11-23T19:24:52.359Z,4.92
2023-11-23T19:27:24.631Z,4.59
2023-11-23T19:29:51.835Z,4.53
2023-11-23T19:32:24.430Z,4.45
2023-11-23T19:34:54.466Z,4.89
2023-11-23T19:37:22.017Z,4.80
2023-11-23T19:39:49.052Z,4.63
2023-11-23T19:42:16.201Z,4.75
2023-11-23T19:44:43.380Z,4.31
2023-11-23T19:47:10.537Z,4.06
2023-11-23T19:49:37.655Z,4.47
2023-11-23T19:52:14.636Z,4.27
2023-11-23T19:54:41.811Z,4.38
2023-11-23T19:57:09.810Z,4.76
2023-11-23T19:59:36.642Z,3.67
2023-11-23T20:02:04.420Z,3.71
2023-11-23T20:04:32.665Z,4.43
2023-11-23T20:06:59.429Z,4.47
2023-11-23T20:09:26.179Z,4.50
2023-11-23T20:11:54.176Z,4.43
2023-11-23T20:14:20.883Z,4.05
2023-11-23T20:16:47.533Z,4.35
2023-11-23T20:19:14.247Z,3.97
2023-11-23T20:21:41.124Z,4.08
2023-11-23T20:24:08.124Z,4.17
2023-11-23T20:26:34.806Z,3.52
2023-11-23T20:29:01.473Z,4.24
2023-11-23T20:31:29.510Z,3.88
2023-11-23T20:33:56.274Z,3.88
2023-11-23T20:36:23.105Z,4.26
2023-11-23T20:38:50.007Z,3.08
2023-11-23T20:41:16.840Z,2.64
2023-11-23T20:43:43.518Z,3.31
2023-11-23T20:46:13.191Z,2.89
2023-11-23T20:48:40.781Z,3.55
2023-11-23T20:51:07.470Z,4.15
2023-11-23T20:53:34.966Z,4.11
2023-11-23T20:56:02.192Z,4.05
2023-11-23T20:58:29.108Z,3.63
2023-11-23T21:00:58.170Z,3.22
2023-11-23T21:03:26.662Z,4.39
2023-11-23T21:05:53.721Z,3.67
2023-11-23T21:08:20.645Z,4.11
2023-11-23T21:10:49.187Z,3.90
2023-11-23T21:13:16.791Z,4.13
2023-11-23T21:15:44.052Z,4.18
2023-11-23T21:18:11.559Z,4.52
2023-11-23T21:20:40.941Z,3.39
2023-11-23T21:23:07.630Z,2.27
2023-11-23T21:25:36.067Z,2.77
2023-11-23T21:28:03.785Z,3.74
2023-11-23T21:30:30.497Z,4.45
2023-11-23T21:32:57.900Z,4.14
2023-11-23T21:35:27.552Z,2.70
2023-11-23T21:37:54.694Z,4.27
2023-11-23T21:40:23.635Z,3.94
2023-11-23T21:42:51.845Z,4.45
2023-11-23T21:45:22.787Z,4.37
2023-11-23T21:47:50.731Z,4.01
2023-11-23T21:50:18.953Z,3.90
2023-11-23T21:52:47.756Z,4.60
2023-11-23T21:55:15.500Z,4.44
2023-11-23T21:57:43.789Z,4.44
2023-11-23T22:00:13.282Z,4.08
2023-11-23T22:02:43.029Z,4.24
2023-11-23T22:05:10.213Z,3.65
2023-11-23T22:07:37.067Z,3.90
2023-11-23T22:10:04.111Z,4.32
2023-11-23T22:12:30.788Z,3.87
2023-11-23T22:14:57.430Z,3.98
2023-11-23T22:17:24.813Z,4.02
2023-11-23T22:19:51.878Z,4.30
2023-11-23T22:22:21.553Z,3.66
2023-11-23T22:24:48.605Z,3.60
2023-11-23T22:27:15.684Z,3.24
2023-11-23T22:29:42.579Z,4.52
2023-11-23T22:32:09.431Z,4.10
2023-11-23T22:34:36.790Z,3.69
2023-11-23T22:37:05.270Z,3.05
2023-11-23T22:39:37.197Z,4.22
2023-11-23T22:42:04.496Z,4.36
2023-11-23T22:44:31.457Z,4.32
2023-11-23T22:46:58.613Z,3.16
2023-11-23T22:49:32.822Z,4.15
2023-11-23T22:52:05.974Z,3.33
2023-11-23T22:54:35.599Z,3.83
2023-11-23T22:57:04.365Z,2.76
2023-11-23T22:59:32.635Z,3.95
2023-11-23T23:02:00.992Z,3.35
2023-11-23T23:04:29.077Z,4.12
2023-11-23T23:07:00.103Z,3.11
2023-11-23T23:09:30.742Z,3.65
2023-11-23T23:11:58.563Z,3.58
2023-11-23T23:14:36.798Z,3.54
2023-11-23T23:17:03.465Z,3.84
2023-11-23T23:19:30.146Z,3.12
2023-11-23T23:21:57.018Z,3.95
2023-11-23T23:24:23.795Z,2.74
2023-11-23T23:26:50.531Z,2.09
2023-11-23T23:29:18.205Z,4.14
2023-11-23T23:32:47.315Z,4.23
2023-11-23T23:35:14.084Z,3.41
2023-11-23T23:37:40.746Z,3.89
2023-11-23T23:40:08.505Z,3.95
2023-11-23T23:42:35.300Z,3.86
2023-11-23T23:45:02.071Z,2.87
2023-11-23T23:47:28.799Z,3.85
2023-11-23T23:49:55.560Z,3.70
2023-11-23T23:52:22.211Z,3.55
2023-11-23T23:54:50.224Z,3.98
2023-11-23T23:57:17.396Z,2.38
2023-11-23T23:59:44.081Z,3.34
